createdAt,value
2018-09-25T00:01:02.803Z,1.40
2018-09-25T00:03:41.174Z,1.43
2018-09-25T00:06:15.757Z,1.17
2018-09-25T00:08:51.468Z,1.27
2018-09-25T00:11:26.247Z,1.80
2018-09-25T00:14:00.561Z,2.17
2018-09-25T00:16:35.515Z,1.30
2018-09-25T00:19:09.846Z,1.83
2018-09-25T00:21:44.386Z,1.10
2018-09-25T00:24:18.752Z,1.57
2018-09-25T00:26:53.471Z,1.40
2018-09-25T00:29:27.675Z,1.67
2018-09-25T00:32:04.903Z,1.30
2018-09-25T00:34:39.074Z,1.13
2018-09-25T00:37:13.789Z,1.73
2018-09-25T00:39:48.057Z,0.80
2018-09-25T00:42:22.261Z,0.93
2018-09-25T00:44:56.951Z,0.70
2018-09-25T00:47:31.215Z,0.93
2018-09-25T00:50:13.387Z,0.90
2018-09-25T00:52:47.531Z,1.20
2018-09-25T00:55:22.082Z,0.83
2018-09-25T00:57:56.378Z,0.80
2018-09-25T01:00:31.551Z,1.33
2018-09-25T01:03:06.007Z,0.80
2018-09-25T01:05:40.544Z,0.93
2018-09-25T01:08:18.449Z,0.97
2018-09-25T01:10:53.197Z,0.90
2018-09-25T01:13:27.507Z,1.17
2018-09-25T01:16:02.253Z,0.97
2018-09-25T01:18:36.467Z,1.57
2018-09-25T01:21:10.662Z,1.17
2018-09-25T01:23:44.883Z,1.33
2018-09-25T01:26:19.546Z,1.10
2018-09-25T01:28:53.776Z,1.30
2018-09-25T01:31:28.802Z,0.80
2018-09-25T01:34:03.056Z,0.80
2018-09-25T01:36:39.342Z,0.90
2018-09-25T01:39:14.342Z,0.87
2018-09-25T01:41:48.800Z,1.10
2018-09-25T01:44:23.287Z,1.40
2018-09-25T01:46:57.882Z,1.10
2018-09-25T01:49:32.054Z,0.80
2018-09-25T01:52:06.524Z,0.90
2018-09-25T01:54:41.383Z,0.80
2018-09-25T01:57:15.979Z,1.30
2018-09-25T01:59:51.770Z,0.97
2018-09-25T02:02:26.929Z,0.80
2018-09-25T02:05:01.270Z,1.03
2018-09-25T02:07:36.175Z,0.80
2018-09-25T02:10:10.523Z,1.10
2018-09-25T02:12:50.840Z,1.20
2018-09-25T02:15:25.395Z,0.80
2018-09-25T02:18:02.454Z,0.83
2018-09-25T02:20:36.887Z,0.97
2018-09-25T02:23:11.534Z,1.37
2018-09-25T02:25:46.242Z,1.10
2018-09-25T02:28:20.677Z,1.03
2018-09-25T02:30:55.172Z,0.97
2018-09-25T02:33:30.101Z,1.00
2018-09-25T02:36:05.095Z,0.80
2018-09-25T02:38:39.304Z,0.97
2018-09-25T02:41:17.567Z,0.87
2018-09-25T02:43:51.874Z,0.93
2018-09-25T02:46:26.381Z,1.33
2018-09-25T02:49:01.260Z,1.10
2018-09-25T02:51:36.467Z,1.43
2018-09-25T02:54:15.035Z,0.90
2018-09-25T02:56:49.479Z,0.57
2018-09-25T02:59:25.115Z,1.10
2018-09-25T03:01:59.711Z,0.80
2018-09-25T03:04:34.044Z,0.90
2018-09-25T03:07:08.720Z,0.73
2018-09-25T03:09:43.043Z,1.43
2018-09-25T03:12:19.303Z,1.00
2018-09-25T03:14:57.102Z,0.90
2018-09-25T03:17:34.946Z,0.83
2018-09-25T03:20:09.828Z,0.80
2018-09-25T03:22:44.387Z,1.00
2018-09-25T03:25:18.561Z,1.23
2018-09-25T03:27:53.127Z,1.20
2018-09-25T03:33:06.182Z,1.10
2018-09-25T03:35:43.730Z,1.10
2018-09-25T03:38:17.948Z,1.00
2018-09-25T03:40:52.641Z,1.20
2018-09-25T03:43:26.920Z,0.90
2018-09-25T03:46:01.569Z,1.47
2018-09-25T03:48:35.732Z,1.10
2018-09-25T03:51:10.029Z,1.47
2018-09-25T03:53:45.645Z,1.20
2018-09-25T03:56:19.954Z,1.40
2018-09-25T03:58:56.359Z,1.50
2018-09-25T04:01:30.518Z,1.10
2018-09-25T04:04:05.154Z,1.50
2018-09-25T04:06:39.324Z,0.97
2018-09-25T04:09:14.063Z,1.67
2018-09-25T04:11:48.331Z,1.30
2018-09-25T04:14:22.766Z,1.20
2018-09-25T04:16:58.061Z,1.13
2018-09-25T04:19:32.241Z,1.17
2018-09-25T04:22:09.635Z,1.17
2018-09-25T04:24:43.847Z,1.57
2018-09-25T04:27:18.509Z,1.77
2018-09-25T04:29:52.859Z,1.50
2018-09-25T04:32:27.528Z,1.10
2018-09-25T04:35:01.680Z,1.30
2018-09-25T04:37:36.307Z,1.53
2018-09-25T04:40:12.219Z,1.80
2018-09-25T04:42:47.706Z,1.50
2018-09-25T04:45:22.530Z,1.33
2018-09-25T04:47:57.276Z,1.43
2018-09-25T04:50:31.518Z,7.90
2018-09-25T04:53:05.919Z,5.83
2018-09-25T04:55:40.548Z,5.10
2018-09-25T05:00:54.814Z,2.33
2018-09-25T05:03:31.670Z,2.40
2018-09-25T05:06:06.684Z,1.50
2018-09-25T05:08:40.959Z,2.23
2018-09-25T05:11:15.637Z,1.20
2018-09-25T05:13:49.907Z,1.30
2018-09-25T05:19:04.236Z,1.20
2018-09-25T05:21:40.842Z,2.23
2018-09-25T05:24:15.070Z,1.67
2018-09-25T05:26:49.654Z,1.67
2018-09-25T05:29:24.351Z,1.37
2018-09-25T05:31:58.528Z,1.60
2018-09-25T05:34:33.264Z,1.60
2018-09-25T05:37:07.620Z,1.80
2018-09-25T05:39:45.118Z,2.13
2018-09-25T05:42:20.099Z,1.50
2018-09-25T05:44:55.863Z,1.83
2018-09-25T05:47:30.112Z,1.33
2018-09-25T05:50:04.963Z,2.00
2018-09-25T05:52:39.262Z,1.60
2018-09-25T05:55:13.751Z,1.83
2018-09-25T05:57:52.654Z,1.53
2018-09-25T06:00:28.289Z,2.50
2018-09-25T06:03:06.119Z,2.20
2018-09-25T06:05:40.793Z,2.60
2018-09-25T06:08:15.123Z,2.30
2018-09-25T06:10:49.949Z,2.70
2018-09-25T06:13:24.265Z,2.57
2018-09-25T06:16:06.772Z,2.50
2018-09-25T06:18:41.183Z,2.60
2018-09-25T06:21:16.807Z,1.83
2018-09-25T06:23:50.991Z,2.50
2018-09-25T06:26:25.274Z,2.53
2018-09-25T06:29:01.052Z,2.53
2018-09-25T06:31:35.818Z,2.53
2018-09-25T06:34:17.601Z,2.50
2018-09-25T06:36:51.830Z,2.60
2018-09-25T06:39:25.997Z,2.67
2018-09-25T06:42:00.867Z,2.40
2018-09-25T06:44:35.179Z,2.80
2018-09-25T06:49:56.743Z,3.00
2018-09-25T06:52:31.408Z,2.40
2018-09-25T06:55:05.875Z,3.60
2018-09-25T06:57:40.442Z,3.07
2018-09-25T07:00:14.771Z,2.83
2018-09-25T07:02:49.282Z,3.13
2018-09-25T07:08:03.149Z,3.70
2018-09-25T07:10:41.427Z,2.43
2018-09-25T07:13:15.622Z,2.13
2018-09-25T07:15:49.898Z,2.83
2018-09-25T07:18:24.520Z,2.17
2018-09-25T07:20:59.150Z,2.23
2018-09-25T07:26:13.199Z,2.20
2018-09-25T07:28:50.699Z,2.53
2018-09-25T07:31:25.132Z,2.53
2018-09-25T07:33:59.434Z,1.90
2018-09-25T07:36:34.307Z,2.20
2018-09-25T07:39:08.751Z,2.20
2018-09-25T07:41:43.274Z,1.83
2018-09-25T07:44:17.661Z,2.10
2018-09-25T07:46:53.170Z,2.63
2018-09-25T07:49:27.691Z,1.80
2018-09-25T07:52:04.218Z,1.30
2018-09-25T07:54:39.224Z,1.40
2018-09-25T07:57:14.088Z,1.47
2018-09-25T07:59:49.009Z,1.47
2018-09-25T08:02:23.342Z,1.47
2018-09-25T08:07:38.698Z,1.00
2018-09-25T08:10:17.828Z,2.07
2018-09-25T08:12:52.245Z,1.40
2018-09-25T08:15:26.516Z,1.20
2018-09-25T08:18:00.948Z,1.30
2018-09-25T08:20:35.392Z,1.90
2018-09-25T08:23:17.452Z,1.50
2018-09-25T08:25:52.101Z,1.50
2018-09-25T08:28:26.370Z,2.53
2018-09-25T08:31:00.979Z,1.90
2018-09-25T08:33:35.335Z,1.80
2018-09-25T08:36:09.672Z,1.80
2018-09-25T08:38:44.052Z,2.10
2018-09-25T08:41:25.868Z,2.03
2018-09-25T08:44:00.145Z,1.90
2018-09-25T08:46:34.380Z,2.07
2018-09-25T08:49:09.037Z,2.23
2018-09-25T08:51:43.656Z,1.90
2018-09-25T08:54:18.069Z,1.87
2018-09-25T08:56:52.620Z,2.37
2018-09-25T08:59:35.430Z,1.20
2018-09-25T09:02:10.034Z,1.10
2018-09-25T09:04:44.372Z,0.80
2018-09-25T09:07:20.819Z,1.30
2018-09-25T09:09:56.242Z,1.57
2018-09-25T09:12:30.983Z,1.43
2018-09-25T09:15:05.467Z,1.10
2018-09-25T09:17:43.603Z,1.30
2018-09-25T09:20:17.930Z,0.90
2018-09-25T09:22:54.184Z,0.70
2018-09-25T09:25:28.507Z,0.90
2018-09-25T09:28:02.964Z,1.00
2018-09-25T09:30:37.637Z,1.20
2018-09-25T09:33:12.201Z,1.00
2018-09-25T09:38:27.268Z,1.17
2018-09-25T09:41:05.770Z,0.90
2018-09-25T09:43:40.244Z,0.80
2018-09-25T09:46:14.931Z,1.57
2018-09-25T09:48:49.251Z,0.80
2018-09-25T09:51:23.792Z,1.00
2018-09-25T09:54:06.454Z,1.00
2018-09-25T09:56:41.158Z,0.90
2018-09-25T09:59:19.127Z,1.03
2018-09-25T10:01:53.911Z,1.10
2018-09-25T10:04:28.244Z,1.10
2018-09-25T10:07:04.336Z,0.90
2018-09-25T10:09:38.825Z,0.93
2018-09-25T10:12:15.521Z,0.90
2018-09-25T10:14:49.812Z,1.00
2018-09-25T10:17:25.986Z,0.90
2018-09-25T10:20:00.341Z,1.00
2018-09-25T10:22:34.850Z,0.73
2018-09-25T10:25:09.404Z,0.90
2018-09-25T10:27:44.704Z,0.80
2018-09-25T10:30:19.071Z,1.10
2018-09-25T10:32:53.518Z,1.00
2018-09-25T10:35:28.744Z,0.90
2018-09-25T10:38:03.884Z,1.37
2018-09-25T10:40:39.640Z,1.10
2018-09-25T10:43:14.199Z,0.90
2018-09-25T10:45:48.661Z,1.20
2018-09-25T10:48:23.105Z,0.80
2018-09-25T10:50:57.642Z,1.37
2018-09-25T10:53:41.974Z,0.97
2018-09-25T10:56:16.406Z,1.23
2018-09-25T10:58:50.917Z,0.77
2018-09-25T11:13:59.947Z,0.90
2018-09-25T11:16:35.933Z,1.00
2018-09-25T11:19:10.314Z,1.13
2018-09-25T11:21:45.039Z,1.00
2018-09-25T11:24:19.721Z,1.20
2018-09-25T11:37:03.561Z,1.07
2018-09-25T11:39:38.031Z,1.20
2018-09-25T11:42:15.749Z,1.20
2018-09-25T11:44:50.187Z,0.80
2018-09-25T11:47:25.323Z,1.20
2018-09-25T11:49:59.677Z,0.80
2018-09-25T11:52:34.304Z,1.03
2018-09-25T12:00:30.511Z,1.10
2018-09-25T12:03:04.854Z,1.13
2018-09-25T12:05:40.486Z,1.50
2018-09-25T12:10:54.351Z,1.20
2018-09-25T12:13:30.674Z,1.20
2018-09-25T12:16:05.337Z,1.57
2018-09-25T12:18:39.943Z,1.30
2018-09-25T12:21:14.348Z,0.90
2018-09-25T12:23:48.679Z,1.17
2018-09-25T12:29:03.808Z,0.93
2018-09-25T12:31:41.586Z,0.80
2018-09-25T12:34:15.911Z,1.10
2018-09-25T12:36:50.226Z,1.10
2018-09-25T12:39:24.811Z,1.23
2018-09-25T12:41:59.382Z,0.90
2018-09-25T12:47:15.703Z,1.20
2018-09-25T12:49:50.656Z,0.77
2018-09-25T12:52:25.371Z,1.47
2018-09-25T12:55:21.853Z,0.60
2018-09-25T12:58:05.772Z,1.00
2018-09-25T13:00:40.837Z,0.80
2018-09-25T13:03:15.382Z,1.00
2018-09-25T13:05:52.006Z,1.27
2018-09-25T13:08:26.406Z,0.90
2018-09-25T13:11:04.120Z,0.80
2018-09-25T13:13:38.656Z,0.90
2018-09-25T13:16:13.361Z,0.70
2018-09-25T13:18:47.743Z,0.70
2018-09-25T13:21:24.737Z,0.70
2018-09-25T13:24:06.548Z,0.80
2018-09-25T13:26:41.086Z,0.90
2018-09-25T13:29:15.919Z,0.90
2018-09-25T13:31:50.213Z,0.80
2018-09-25T13:34:24.810Z,0.70
2018-09-25T13:36:59.252Z,0.70
2018-09-25T13:39:33.837Z,0.80
2018-09-25T13:44:48.357Z,0.67
2018-09-25T13:47:25.981Z,1.00
2018-09-25T13:50:00.753Z,0.70
2018-09-25T13:52:35.206Z,0.70
2018-09-25T13:55:10.256Z,0.80
2018-09-25T13:57:45.146Z,0.90
2018-09-25T14:00:23.306Z,0.90
2018-09-25T14:02:57.905Z,1.10
2018-09-25T14:05:33.963Z,3.27
2018-09-25T14:08:08.371Z,0.80
2018-09-25T14:10:43.177Z,1.00
2018-09-25T14:13:18.908Z,0.70
2018-09-25T14:15:53.812Z,0.80
2018-09-25T14:18:35.983Z,0.80
2018-09-25T14:21:10.767Z,0.80
2018-09-25T14:23:45.333Z,0.80
2018-09-25T14:26:19.848Z,0.90
2018-09-25T14:28:54.276Z,0.70
2018-09-25T14:31:28.916Z,0.70
2018-09-25T14:34:03.234Z,0.90
2018-09-25T14:36:45.331Z,0.73
2018-09-25T14:39:20.979Z,0.70
2018-09-25T14:41:56.042Z,0.63
2018-09-25T14:44:30.306Z,0.90
2018-09-25T14:47:05.156Z,1.00
2018-09-25T14:49:39.684Z,0.60
2018-09-25T14:52:14.511Z,0.73
2018-09-25T14:54:56.623Z,0.70
2018-09-25T14:57:30.934Z,0.60
2018-09-25T15:00:05.563Z,0.50
2018-09-25T15:02:39.780Z,0.80
2018-09-25T15:05:14.141Z,1.07
2018-09-25T15:07:48.717Z,0.80
2018-09-25T15:10:23.298Z,0.60
2018-09-25T15:15:38.419Z,0.90
2018-09-25T15:18:15.807Z,0.63
2018-09-25T15:20:50.498Z,0.60
2018-09-25T15:23:25.372Z,0.70
2018-09-25T15:25:59.819Z,0.60
2018-09-25T15:28:34.490Z,1.20
2018-09-25T15:33:48.500Z,1.00
2018-09-25T15:36:26.823Z,0.73
2018-09-25T15:39:02.570Z,0.90
2018-09-25T15:41:37.161Z,1.10
2018-09-25T15:44:11.689Z,1.00
2018-09-25T15:46:47.014Z,0.80
2018-09-25T15:49:24.992Z,1.30
2018-09-25T15:52:00.035Z,1.43
2018-09-25T15:54:34.455Z,0.60
2018-09-25T15:57:09.067Z,0.70
2018-09-25T15:59:43.538Z,0.97
2018-09-25T16:02:18.392Z,0.90
2018-09-25T16:04:52.815Z,1.37
2018-09-25T16:10:06.923Z,0.90
2018-09-25T16:12:44.153Z,1.07
2018-09-25T16:15:18.464Z,0.80
2018-09-25T16:17:52.844Z,1.10
2018-09-25T16:20:27.465Z,0.90
2018-09-25T16:23:02.315Z,0.90
2018-09-25T16:25:36.766Z,1.05
2018-09-25T16:28:11.586Z,1.00
2018-09-25T16:30:46.782Z,0.90
2018-09-25T16:33:22.244Z,0.90
2018-09-25T16:35:57.886Z,1.20
2018-09-25T16:38:32.588Z,1.10
2018-09-25T16:41:06.877Z,1.50
2018-09-25T16:43:41.460Z,1.07
2018-09-25T16:46:16.930Z,1.43
2018-09-25T16:48:52.467Z,1.00
2018-09-25T16:51:27.032Z,1.10
2018-09-25T16:56:33.710Z,1.10
2018-09-25T16:59:08.551Z,2.37
2018-09-25T17:01:43.326Z,1.63
2018-09-25T17:04:17.861Z,1.50
2018-09-25T17:06:52.352Z,1.80
2018-09-25T17:09:30.187Z,1.23
2018-09-25T17:12:04.926Z,1.10
2018-09-25T17:14:40.585Z,1.23
2018-09-25T17:17:14.914Z,1.73
2018-09-25T17:19:50.477Z,1.30
2018-09-25T17:22:24.752Z,0.93
2018-09-25T17:24:59.452Z,1.47
2018-09-25T17:30:18.914Z,0.93
2018-09-25T17:32:53.649Z,0.80
2018-09-25T17:35:28.397Z,0.90
2018-09-25T17:38:03.155Z,1.10
2018-09-25T17:40:37.970Z,0.80
2018-09-25T17:43:13.055Z,0.80
2018-09-25T17:45:50.416Z,1.00
2018-09-25T17:48:24.984Z,1.00
2018-09-25T17:51:01.446Z,0.83
2018-09-25T17:53:36.367Z,1.00
2018-09-25T17:56:11.461Z,0.83
2018-09-25T17:58:45.770Z,0.70
2018-09-25T18:01:20.699Z,1.20
2018-09-25T18:06:35.555Z,0.90
2018-09-25T18:09:14.666Z,0.80
2018-09-25T18:11:50.382Z,1.17
2018-09-25T18:14:24.720Z,1.30
2018-09-25T18:16:59.032Z,1.20
2018-09-25T18:19:33.546Z,1.17
2018-09-25T18:22:11.978Z,0.90
2018-09-25T18:24:46.274Z,1.27
2018-09-25T18:27:23.641Z,1.50
2018-09-25T18:29:57.994Z,1.07
2018-09-25T18:32:32.590Z,1.63
2018-09-25T18:35:07.295Z,1.77
2018-09-25T18:37:41.656Z,1.53
2018-09-25T18:40:24.018Z,1.20
2018-09-25T18:42:59.812Z,0.97
2018-09-25T18:45:35.667Z,1.70
2018-09-25T18:48:10.210Z,1.63
2018-09-25T18:50:45.097Z,1.80
2018-09-25T18:53:19.318Z,2.13
2018-09-25T18:55:53.687Z,2.07
2018-09-25T18:58:32.224Z,1.40
2018-09-25T19:01:07.849Z,1.60
2018-09-25T19:03:42.429Z,1.60
2018-09-25T19:06:17.447Z,2.53
2018-09-25T19:08:52.006Z,1.80
2018-09-25T19:11:27.038Z,1.80
2018-09-25T19:14:01.566Z,1.90
2018-09-25T19:16:43.997Z,1.93
2018-09-25T19:19:18.858Z,2.00
2018-09-25T19:21:54.437Z,1.87
2018-09-25T19:24:29.016Z,2.23
2018-09-25T19:27:04.263Z,2.73
2018-09-25T19:29:38.853Z,2.53
2018-09-25T19:32:14.191Z,2.20
2018-09-25T19:34:50.166Z,2.00
2018-09-25T19:37:25.283Z,2.50
2018-09-25T19:40:01.198Z,1.90
2018-09-25T19:42:36.129Z,1.40
2018-09-25T19:45:10.923Z,1.87
2018-09-25T19:47:46.033Z,1.50
2018-09-25T19:50:20.646Z,1.73
2018-09-25T19:53:03.268Z,1.67
2018-09-25T19:55:37.638Z,1.83
2018-09-25T19:58:13.017Z,1.50
2018-09-25T20:00:47.443Z,2.10
2018-09-25T20:03:22.957Z,1.57
2018-09-25T20:05:57.355Z,1.30
2018-09-25T20:08:32.204Z,1.70
2018-09-25T20:11:14.483Z,1.40
2018-09-25T20:13:49.099Z,1.53
2018-09-25T20:16:24.311Z,1.53
2018-09-25T20:19:01.632Z,1.47
2018-09-25T20:21:36.870Z,1.80
2018-09-25T20:26:54.873Z,1.10
2018-09-25T20:29:30.085Z,1.00
2018-09-25T20:32:05.014Z,1.00
2018-09-25T20:34:42.049Z,1.30
2018-09-25T20:37:16.568Z,1.10
2018-09-25T20:39:50.943Z,1.40
2018-09-25T20:42:26.224Z,1.00
2018-09-25T20:45:00.719Z,1.20
2018-09-25T20:47:38.201Z,1.50
2018-09-25T20:50:13.260Z,1.10
2018-09-25T20:52:48.263Z,1.30
2018-09-25T20:55:23.089Z,0.90
2018-09-25T20:57:57.927Z,1.30
2018-09-25T21:00:36.705Z,1.37
2018-09-25T21:03:11.534Z,1.00
2018-09-25T21:05:46.350Z,1.00
2018-09-25T21:08:21.184Z,1.00
2018-09-25T21:10:57.660Z,1.10
2018-09-25T21:13:32.538Z,0.90
2018-09-25T21:16:06.968Z,0.83
2018-09-25T21:18:48.687Z,0.70
2018-09-25T21:21:23.345Z,0.70
2018-09-25T21:24:04.712Z,0.90
2018-09-25T21:26:39.369Z,1.00
2018-09-25T21:29:14.510Z,1.10
2018-09-25T21:31:52.859Z,0.70
2018-09-25T21:34:27.507Z,0.90
2018-09-25T21:37:02.795Z,0.80
2018-09-25T21:39:37.360Z,0.90
2018-09-25T21:42:11.622Z,1.10
2018-09-25T21:44:46.250Z,0.90
2018-09-25T21:47:20.680Z,1.67
2018-09-25T21:49:54.997Z,0.93
2018-09-25T21:52:29.442Z,0.70
2018-09-25T21:55:07.308Z,0.80
2018-09-25T21:57:42.297Z,0.77
2018-09-25T22:00:18.543Z,0.73
2018-09-25T22:02:53.205Z,1.33
2018-09-25T22:05:27.584Z,0.87
2018-09-25T22:08:02.313Z,0.80
2018-09-25T22:10:36.963Z,0.80
2018-09-25T22:15:52.034Z,0.70
2018-09-25T22:18:27.432Z,0.60
2018-09-25T22:21:01.708Z,0.80
2018-09-25T22:23:36.527Z,0.70
2018-09-25T22:26:10.803Z,0.60
2018-09-25T22:28:46.191Z,0.97
2018-09-25T22:31:28.652Z,0.50
2018-09-25T22:34:03.566Z,0.60
2018-09-25T22:36:38.310Z,1.10
2018-09-25T22:39:15.454Z,0.70
2018-09-25T22:41:49.807Z,0.97
2018-09-25T22:44:24.651Z,0.90
2018-09-25T22:46:58.972Z,0.70
2018-09-25T22:49:36.052Z,0.40
2018-09-25T22:52:10.946Z,0.50
2018-09-25T22:54:46.740Z,0.63
2018-09-25T22:57:21.047Z,0.80
2018-09-25T22:59:55.869Z,0.80
2018-09-25T23:02:30.243Z,0.70
2018-09-25T23:05:05.031Z,0.70
2018-09-25T23:10:19.029Z,0.60
2018-09-25T23:12:56.130Z,0.50
2018-09-25T23:15:30.611Z,0.50
2018-09-25T23:18:04.963Z,0.77
2018-09-25T23:20:39.263Z,0.70
2018-09-25T23:23:13.871Z,0.63
2018-09-25T23:25:48.149Z,0.50
2018-09-25T23:28:22.823Z,0.50
2018-09-25T23:31:00.140Z,0.50
2018-09-25T23:33:35.130Z,0.50
2018-09-25T23:36:09.647Z,0.77
2018-09-25T23:38:43.894Z,0.50
2018-09-25T23:41:22.140Z,0.93
2018-09-25T23:44:09.713Z,0.50
2018-09-25T23:46:44.364Z,0.50
2018-09-25T23:50:17.562Z,0.60
2018-09-25T23:52:54.386Z,0.60
2018-09-25T23:55:35.211Z,1.30
2018-09-25T23:58:07.681Z,0.70
